Time;durP1;ratioP1;P1;durP2;ratioP2;P2;SDS_P1;SDS_P2;PMS_P1;PMS_P2;Temp;Humidity;BMP_temperature;BMP_pressure;BME280_temperature;BME280_humidity;BME280_pressure;Samples;Min_cycle;Max_cycle;Signal;HPM_P1;HPM_P2
2022/12/22 03:26:35;;;;;;;24.77;13.80;;;;;;;4.83;100.00;99903.22;3495844;83;30545;-88
2022/12/22 03:31:35;;;;;;;28.02;14.80;;;;;;;4.83;100.00;99887.42;3491770;82;98883;-89
2022/12/22 03:36:36;;;;;;;29.67;15.33;;;;;;;4.81;100.00;99889.13;3498215;83;26172;-88
2022/12/22 03:46:56;;;;;;;26.97;14.95;;;;;;;4.82;100.00;99873.58;3497208;83;30982;-88
2022/12/22 03:51:57;;;;;;;25.83;14.10;;;;;;;4.84;100.00;99859.81;3491625;82;98473;-89
2022/12/22 03:56:58;;;;;;;24.87;14.47;;;;;;;4.84;100.00;99857.66;3498364;83;26156;-91
2022/12/22 04:01:59;;;;;;;27.17;13.73;;;;;;;4.86;100.00;99839.80;3492030;83;98667;-90
2022/12/22 04:07:00;;;;;;;29.47;15.57;;;;;;;4.85;100.00;99838.22;3497992;83;26456;-88
2022/12/22 04:17:20;;;;;;;26.33;13.90;;;;;;;4.84;100.00;99845.38;3496891;83;31684;-89
2022/12/22 04:22:21;;;;;;;26.53;15.00;;;;;;;4.83;100.00;99836.44;3491663;83;98573;-88
2022/12/22 04:27:22;;;;;;;26.90;14.53;;;;;;;4.80;100.00;99821.36;3476954;83;26887;-89
2022/12/22 04:32:22;;;;;;;25.27;14.10;;;;;;;4.80;100.00;99832.27;3455919;84;98541;-88
2022/12/22 04:37:23;;;;;;;25.50;14.43;;;;;;;4.76;100.00;99825.92;3462050;84;26091;-88
2022/12/22 04:42:24;;;;;;;27.43;14.27;;;;;;;4.74;100.00;99818.69;3459001;84;98486;-88
2022/12/22 04:47:25;;;;;;;26.63;14.53;;;;;;;4.71;100.00;99819.38;3467189;84;25852;-89
2022/12/22 04:52:25;;;;;;;26.33;13.97;;;;;;;4.67;100.00;99817.13;3457594;84;98885;-89
2022/12/22 04:57:26;;;;;;;27.37;14.00;;;;;;;4.62;100.00;99812.74;3463787;84;33500;-89
2022/12/22 05:02:27;;;;;;;27.53;16.13;;;;;;;4.58;100.00;99794.73;3456124;84;98749;-89
2022/12/22 05:07:28;;;;;;;28.27;15.57;;;;;;;4.54;100.00;99797.94;3461948;84;33465;-89
2022/12/22 05:17:48;;;;;;;27.40;14.47;;;;;;;4.43;100.00;99812.64;3462006;84;25909;-89
2022/12/22 05:22:49;;;;;;;26.27;13.90;;;;;;;4.40;100.00;99797.56;3456795;84;98590;-89
2022/12/22 05:27:50;;;;;;;24.73;14.33;;;;;;;4.39;100.00;99789.98;3493133;83;33642;-89
2022/12/22 05:32:51;;;;;;;28.93;14.70;;;;;;;4.39;100.00;99782.38;3506422;83;98541;-89
2022/12/22 05:37:52;;;;;;;25.23;13.57;;;;;;;4.39;100.00;99775.00;3514550;83;33725;-89
2022/12/22 05:42:53;;;;;;;24.63;14.37;;;;;;;4.40;100.00;99771.69;3504438;83;98602;-89
2022/12/22 05:47:54;;;;;;;24.90;14.60;;;;;;;4.42;100.00;99761.25;3513120;83;33194;-89
2022/12/22 05:52:55;;;;;;;23.67;13.47;;;;;;;4.44;100.00;99755.67;3509127;82;98708;-89
2022/12/22 05:57:56;;;;;;;23.50;12.80;;;;;;;4.47;100.00;99754.17;3514897;82;33253;-89
2022/12/22 06:02:57;;;;;;;24.10;13.33;;;;;;;4.52;100.00;99748.43;3499529;82;98743;-88
2022/12/22 06:07:58;;;;;;;23.93;12.07;;;;;;;4.54;100.00;99742.84;3503139;82;29450;-89
2022/12/22 06:12:59;;;;;;;22.37;13.07;;;;;;;4.58;100.00;99733.42;3500311;84;98910;-88
2022/12/22 06:18:00;;;;;;;25.77;13.33;;;;;;;4.63;100.00;99739.97;3490376;83;25757;-89
2022/12/22 06:23:01;;;;;;;24.10;13.37;;;;;;;4.66;100.00;99742.77;3503392;82;98786;-88
2022/12/22 06:28:02;;;;;;;25.20;13.50;;;;;;;4.67;100.00;99738.09;3498008;83;31670;-89
2022/12/22 06:33:02;;;;;;;32.20;15.97;;;;;;;4.67;100.00;99746.27;3469897;83;98768;-89
2022/12/22 06:38:03;;;;;;;28.50;15.93;;;;;;;4.66;100.00;99746.05;3493645;83;31577;-89
2022/12/22 06:43:10;;;;;;;30.90;17.00;;;;;;;4.64;100.00;99749.72;3492926;82;98673;-89
2022/12/22 06:48:12;;;;;;;;;;;;;;;4.63;100.00;99740.73;3496010;83;26377;-88
2022/12/22 06:53:13;;;;;;;30.92;17.52;;;;;;;4.63;100.00;99741.33;3492243;82;84500;-88
2022/12/22 06:58:14;;;;;;;29.27;17.53;;;;;;;4.59;100.00;99737.72;3493543;83;26216;-89
2022/12/22 07:03:15;;;;;;;31.20;18.20;;;;;;;4.58;100.00;99735.56;3483644;82;98679;-89
2022/12/22 07:08:15;;;;;;;33.67;18.93;;;;;;;4.56;100.00;99732.97;3485383;84;34898;-89
2022/12/22 07:13:19;;;;;;;34.70;20.12;;;;;;;4.55;100.00;99728.66;3487349;82;98517;-89
2022/12/22 07:18:20;;;;;;;32.50;19.70;;;;;;;4.54;100.00;99725.14;3490631;83;27197;-89
2022/12/22 07:23:21;;;;;;;29.90;17.20;;;;;;;4.49;100.00;99714.54;3484106;82;99008;-89
2022/12/22 07:28:22;;;;;;;32.53;18.50;;;;;;;4.47;100.00;99714.08;3494431;83;28085;-89
2022/12/22 07:33:23;;;;;;;39.40;22.23;;;;;;;4.45;100.00;99706.05;3489596;83;99118;-88
2022/12/22 07:38:24;;;;;;;31.87;19.40;;;;;;;4.43;100.00;99694.13;3492420;83;35452;-88
2022/12/22 07:43:25;;;;;;;31.70;19.70;;;;;;;4.37;100.00;99692.83;3490330;83;98556;-89
2022/12/22 07:53:40;;;;;;;33.78;18.52;;;;;;;4.32;100.00;99679.47;3457764;82;98514;-88
2022/12/22 07:58:41;;;;;;;36.80;20.80;;;;;;;4.32;100.00;99682.20;3492481;83;34945;-88
2022/12/22 08:03:42;;;;;;;40.10;20.03;;;;;;;4.32;100.00;99671.89;3487415;83;98704;-88
2022/12/22 08:08:43;;;;;;;35.70;18.63;;;;;;;4.33;100.00;99671.55;3490306;83;34848;-89
2022/12/22 08:13:45;;;;;;;30.77;16.00;;;;;;;4.36;100.00;99665.37;3487645;83;99054;-88
2022/12/22 08:18:46;;;;;;;29.13;15.97;;;;;;;4.41;100.00;99662.38;3495182;83;34875;-89
2022/12/22 08:23:47;;;;;;;28.38;13.75;;;;;;;4.47;100.00;99657.46;3487925;83;98872;-88
2022/12/22 08:28:59;;;;;;;25.87;15.47;;;;;;;4.52;100.00;99651.15;3475576;83;34882;-89
2022/12/22 08:34:04;;;;;;;28.10;14.10;;;;;;;4.58;100.00;99638.83;3452021;82;98892;-89
2022/12/22 08:39:07;;;;;;;26.30;13.75;;;;;;;4.65;100.00;99631.39;3458032;84;30059;-89
2022/12/22 08:44:07;;;;;;;21.48;12.33;;;;;;;4.71;100.00;99623.94;3450437;82;98548;-89
2022/12/22 08:49:08;;;;;;;21.37;11.63;;;;;;;4.74;100.00;99606.86;3459310;85;35566;-89
2022/12/22 08:54:10;;;;;;;23.40;12.53;;;;;;;4.83;100.00;99606.08;3450616;84;98566;-90
2022/12/22 08:59:11;;;;;;;20.68;12.60;;;;;;;4.89;100.00;99600.55;3450405;84;29533;-89
2022/12/22 09:04:14;;;;;;;21.83;13.03;;;;;;;4.94;100.00;99596.19;3455459;82;98573;-89
2022/12/22 09:09:15;;;;;;;21.20;12.30;;;;;;;5.01;100.00;99590.06;3459616;84;31348;-89
2022/12/22 09:14:16;;;;;;;23.30;13.67;;;;;;;5.06;100.00;99581.59;3453979;84;98503;-89
2022/12/22 09:19:17;;;;;;;27.77;14.47;;;;;;;5.13;100.00;99576.29;3460609;84;35534;-88
2022/12/22 09:24:18;;;;;;;30.03;14.83;;;;;;;5.20;100.00;99577.78;3455620;85;98356;-90
2022/12/22 09:29:19;;;;;;;27.33;13.90;;;;;;;5.26;100.00;99570.88;3479452;84;36136;-88
2022/12/22 09:34:20;;;;;;;24.10;13.27;;;;;;;5.33;100.00;99566.34;3488047;82;98356;-89
2022/12/22 09:39:21;;;;;;;25.17;14.83;;;;;;;5.43;100.00;99567.67;3496788;83;34777;-89
2022/12/22 09:44:30;;;;;;;24.60;14.23;;;;;;;5.50;100.00;99554.94;3487792;82;98358;-89
2022/12/22 09:49:31;;;;;;;26.03;17.43;;;;;;;5.56;100.00;99551.34;3498408;83;26480;-88
2022/12/22 09:54:31;;;;;;;27.97;16.33;;;;;;;5.62;100.00;99545.80;3491530;81;98451;-89
2022/12/22 09:59:32;;;;;;;28.00;16.13;;;;;;;5.71;100.00;99538.13;3494432;83;34903;-90
2022/12/22 10:04:53;;;;;;;27.87;15.83;;;;;;;5.77;100.00;99528.46;3489157;83;98632;-89
2022/12/22 10:09:54;;;;;;;30.62;17.02;;;;;;;5.82;100.00;99522.73;3492275;83;31755;-89
2022/12/22 10:14:55;;;;;;;27.23;16.03;;;;;;;5.90;100.00;99512.13;3491113;83;98851;-90
2022/12/22 10:20:26;;;;;;;28.73;16.53;;;;;;;5.95;100.00;99493.48;3495718;83;34823;-90
2022/12/22 10:25:33;;;;;;;31.90;17.23;;;;;;;6.02;100.00;99504.52;3488518;82;98601;-88
2022/12/22 10:30:37;;;;;;;37.67;19.23;;;;;;;6.08;100.00;99494.85;3467988;83;54351;-88
2022/12/22 10:35:54;;;;;;;33.28;17.90;;;;;;;6.13;100.00;99491.00;3453864;82;98776;-88
2022/12/22 10:41:00;;;;;;;30.37;16.67;;;;;;;6.20;100.00;99478.80;3459715;84;26546;-87
2022/12/22 10:46:02;;;;;;;30.70;16.40;;;;;;;6.26;100.00;99475.94;3460064;84;26237;-88
2022/12/22 10:51:08;;;;;;;29.60;16.50;;;;;;;6.30;100.00;99468.02;3449820;84;98559;-89
2022/12/22 10:56:26;;;;;;;36.00;18.92;;;;;;;6.36;100.00;99463.00;3459984;84;26907;-89
2022/12/22 11:01:36;;;;;;;46.98;26.15;;;;;;;6.43;100.00;99450.81;3453330;82;98643;-87
2022/12/22 11:06:37;;;;;;;40.10;23.67;;;;;;;6.47;100.00;99442.05;3456627;84;26413;-89
2022/12/22 11:11:58;;;;;;;32.43;17.60;;;;;;;6.52;100.00;99436.25;3434426;84;99067;-88
2022/12/22 11:17:04;;;;;;;31.77;17.77;;;;;;;6.59;100.00;99436.31;3457373;84;28748;-88
2022/12/22 11:22:39;;;;;;;34.45;20.52;;;;;;;6.65;100.00;99425.28;3450582;84;98512;-88
2022/12/22 11:28:09;;;;;;;32.97;18.33;;;;;;;6.69;100.00;99409.11;3462092;84;27892;-89
2022/12/22 11:33:40;;;;;;;41.73;20.08;;;;;;;6.73;100.00;99405.84;3485645;83;98574;-87
2022/12/22 11:38:50;;;;;;;34.93;18.50;;;;;;;6.75;100.00;99393.14;3496282;82;26906;-88
2022/12/22 11:44:05;;;;;;;35.35;16.93;;;;;;;6.77;100.00;99387.50;3490278;82;99035;-88
2022/12/22 11:49:47;;;;;;;30.60;17.50;;;;;;;6.80;100.00;99380.49;3485842;83;29868;-89
2022/12/22 11:54:57;;;;;;;35.65;18.87;;;;;;;6.80;100.00;99373.66;3491437;83;98616;-90
2022/12/22 12:00:12;;;;;;;37.17;20.90;;;;;;;6.82;100.00;99362.55;3485961;83;28421;-89
2022/12/22 12:05:39;;;;;;;35.63;17.70;;;;;;;6.83;100.00;99366.08;3488075;83;98744;-89
2022/12/22 12:10:44;;;;;;;29.37;16.07;;;;;;;6.83;100.00;99355.91;3494644;84;29847;-88
2022/12/22 12:15:57;;;;;;;31.37;18.32;;;;;;;6.84;100.00;99353.41;3486875;83;98260;-89
2022/12/22 12:21:26;;;;;;;28.20;16.00;;;;;;;6.87;100.00;99344.42;3486244;83;98893;-87
2022/12/22 12:27:00;;;;;;;32.53;16.30;;;;;;;6.90;100.00;99348.36;3493659;83;27076;-89
2022/12/22 12:32:22;;;;;;;30.87;17.03;;;;;;;6.92;100.00;99333.73;3497466;82;98547;-88
2022/12/22 12:37:36;;;;;;;37.30;17.27;;;;;;;6.95;100.00;99328.86;3504951;82;27857;-89
2022/12/22 12:42:42;;;;;;;34.38;18.20;;;;;;;7.00;100.00;99332.62;3504681;82;98932;-88
2022/12/22 12:47:43;;;;;;;58.85;29.60;;;;;;;7.03;100.00;99320.33;3510380;82;31630;-90
2022/12/22 12:52:49;;;;;;;48.97;25.47;;;;;;;7.03;100.00;99318.96;3502272;82;98634;-89
2022/12/22 12:57:51;;;;;;;35.43;19.05;;;;;;;7.05;100.00;99306.28;3508208;83;27011;-89
2022/12/22 13:02:56;;;;;;;32.88;17.90;;;;;;;7.07;100.00;99308.04;3501540;83;98832;-88
2022/12/22 13:08:15;;;;;;;31.53;17.40;;;;;;;7.11;100.00;99306.92;3505015;83;27848;-88
2022/12/22 13:13:32;;;;;;;32.10;18.07;;;;;;;7.11;100.00;99300.08;3501237;82;98759;-88
2022/12/22 13:18:43;;;;;;;35.33;19.07;;;;;;;7.13;100.00;99302.41;3511431;83;25880;-90
2022/12/22 13:23:55;;;;;;;34.27;19.12;;;;;;;7.11;100.00;99297.91;3498960;82;98864;-87
2022/12/22 13:29:01;;;;;;;37.13;20.30;;;;;;;7.11;100.00;99297.34;3498677;83;27011;-87
2022/12/22 13:34:42;;;;;;;35.88;20.20;;;;;;;7.11;100.00;99296.55;3488044;82;98555;-87
2022/12/22 13:40:13;;;;;;;43.10;23.45;;;;;;;7.12;100.00;99290.70;3494848;83;31365;-85
2022/12/22 13:45:28;;;;;;;47.93;27.07;;;;;;;7.12;100.00;99281.12;3488487;83;98516;-85
2022/12/22 13:50:36;;;;;;;48.90;26.47;;;;;;;7.13;100.00;99280.53;3493814;83;26632;-90
2022/12/22 13:55:38;;;;;;;42.90;23.77;;;;;;;7.14;100.00;99275.28;3489484;82;98761;-89
2022/12/22 14:00:38;;;;;;;35.00;19.75;;;;;;;7.15;100.00;99277.61;3477182;83;31424;-89
2022/12/22 14:05:39;;;;;;;35.93;19.30;;;;;;;7.17;100.00;99275.30;3489419;82;98797;-89
2022/12/22 14:10:43;;;;;;;37.27;18.63;;;;;;;7.18;100.00;99276.06;3491719;83;35463;-89
2022/12/22 14:15:45;;;;;;;31.57;18.20;;;;;;;7.20;100.00;99280.59;3488336;83;98395;-88
2022/12/22 14:20:47;;;;;;;31.65;16.17;;;;;;;7.19;100.00;99271.59;3490064;84;29790;-87
2022/12/22 14:25:50;;;;;;;27.45;17.27;;;;;;;7.20;100.00;99265.54;3486772;82;98641;-88
2022/12/22 14:30:58;;;;;;;30.27;16.80;;;;;;;7.21;100.00;99267.11;3472693;84;27831;-89
2022/12/22 14:36:22;;;;;;;34.47;18.27;;;;;;;7.22;100.00;99261.83;3458408;84;26662;-89
2022/12/22 14:41:40;;;;;;;34.08;17.10;;;;;;;7.22;100.00;99265.94;3452576;84;98820;-89
2022/12/22 14:46:42;;;;;;;29.50;16.83;;;;;;;7.22;100.00;99261.83;3454094;84;27850;-89
2022/12/22 14:51:53;;;;;;;27.15;15.25;;;;;;;7.23;100.00;99263.39;3450341;82;98613;-88
2022/12/22 14:57:04;;;;;;;27.57;15.13;;;;;;;7.23;100.00;99260.66;3454052;84;28398;-89
2022/12/22 15:02:31;;;;;;;26.63;15.93;;;;;;;7.25;100.00;99256.97;3428776;83;98900;-88
2022/12/22 15:07:52;;;;;;;27.58;15.70;;;;;;;7.26;100.00;99257.17;3455611;84;26415;-89
2022/12/22 15:12:57;;;;;;;34.13;18.50;;;;;;;7.28;100.00;99253.45;3450296;83;98722;-88
2022/12/22 15:17:58;;;;;;;33.87;19.83;;;;;;;7.29;100.00;99250.34;3438276;84;27479;-88
2022/12/22 15:22:59;;;;;;;37.57;21.73;;;;;;;7.30;100.00;99250.53;3450941;84;98496;-89
2022/12/22 15:27:59;;;;;;;45.13;25.77;;;;;;;7.32;100.00;99253.66;3455784;84;34774;-87
2022/12/22 15:33:01;;;;;;;47.08;28.30;;;;;;;7.34;100.00;99254.08;3478309;83;98925;-88
2022/12/22 15:38:02;;;;;;;47.00;26.67;;;;;;;7.34;100.00;99257.39;3491648;83;34804;-87
2022/12/22 15:43:02;;;;;;;37.17;21.37;;;;;;;7.33;100.00;99264.84;3485799;82;98457;-87
2022/12/22 15:48:09;;;;;;;34.83;19.13;;;;;;;7.32;100.00;99254.27;3493654;83;34881;-87
2022/12/22 15:53:18;;;;;;;;;;;;;;;7.32;100.00;99261.87;3487500;82;98967;-88
2022/12/22 15:58:23;;;;;;;29.10;17.02;;;;;;;7.33;100.00;99253.09;3494000;83;32133;-89
2022/12/22 16:03:24;;;;;;;34.90;17.52;;;;;;;7.32;100.00;99256.40;3488175;82;98544;-87
2022/12/22 16:08:36;;;;;;;29.83;17.10;;;;;;;7.32;100.00;99255.03;3495146;83;34838;-88
2022/12/22 16:13:37;;;;;;;28.60;17.25;;;;;;;7.31;100.00;99250.73;3488992;82;98983;-88
2022/12/22 16:18:38;;;;;;;27.50;15.83;;;;;;;7.32;100.00;99244.69;3496202;83;34852;-90
2022/12/22 16:23:41;;;;;;;27.23;15.67;;;;;;;7.33;100.00;99249.78;3489121;83;98916;-87
2022/12/22 16:28:42;;;;;;;27.43;16.93;;;;;;;7.34;100.00;99245.87;3494703;83;28946;-90
2022/12/22 16:33:43;;;;;;;34.23;18.97;;;;;;;7.35;100.00;99252.11;3439048;82;98947;-86
2022/12/22 16:38:46;;;;;;;35.10;20.73;;;;;;;7.35;100.00;99248.80;3497708;82;34959;-89
2022/12/22 16:43:47;;;;;;;35.98;21.33;;;;;;;7.34;100.00;99248.61;3492923;83;98835;-88
2022/12/22 16:48:58;;;;;;;35.50;21.30;;;;;;;7.34;100.00;99250.55;3500000;83;33039;-88
2022/12/22 16:54:00;;;;;;;37.90;21.42;;;;;;;7.34;100.00;99252.72;3497292;82;98740;-88
2022/12/22 16:59:03;;;;;;;40.77;23.47;;;;;;;7.35;100.00;99241.96;3498625;83;26842;-88
2022/12/22 17:04:08;;;;;;;41.70;23.38;;;;;;;7.34;100.00;99242.34;3494522;83;99065;-88
2022/12/22 17:09:23;;;;;;;44.90;24.72;;;;;;;7.33;100.00;99245.67;3497190;83;25839;-87
2022/12/22 17:14:36;;;;;;;41.02;24.30;;;;;;;7.33;100.00;99251.16;3492533;82;98764;-88
2022/12/22 17:19:37;;;;;;;42.60;23.02;;;;;;;7.34;100.00;99256.02;3496581;83;30100;-87
2022/12/22 17:24:38;;;;;;;43.23;23.23;;;;;;;7.36;100.00;99258.58;3515759;82;98693;-88
2022/12/22 17:29:39;;;;;;;42.00;24.03;;;;;;;7.37;100.00;99259.38;3528702;83;34923;-87
2022/12/22 17:34:40;;;;;;;41.33;24.30;;;;;;;7.37;100.00;99258.01;3477781;83;98684;-88
2022/12/22 17:39:42;;;;;;;37.27;23.53;;;;;;;7.36;100.00;99266.02;3482784;84;34840;-88
2022/12/22 17:44:43;;;;;;;39.43;23.63;;;;;;;7.35;100.00;99262.48;3474700;83;98773;-88
2022/12/22 17:49:44;;;;;;;39.57;25.40;;;;;;;7.37;100.00;99266.22;3479969;84;34815;-88
2022/12/22 17:54:49;;;;;;;38.03;24.07;;;;;;;7.39;100.00;99259.77;3475855;83;98598;-87
2022/12/22 17:59:50;;;;;;;43.93;26.33;;;;;;;7.39;100.00;99259.77;3462292;84;26977;-88
2022/12/22 18:04:51;;;;;;;39.63;22.75;;;;;;;7.39;100.00;99266.61;3451167;84;98794;-88
2022/12/22 18:09:57;;;;;;;41.07;24.43;;;;;;;7.39;100.00;99267.41;3440718;84;35472;-88
2022/12/22 18:14:58;;;;;;;40.08;24.90;;;;;;;7.39;100.00;99274.25;3452476;84;98816;-88
2022/12/22 18:19:59;;;;;;;41.47;25.73;;;;;;;7.42;100.00;99271.33;3326368;87;26224;-88
2022/12/22 18:25:04;;;;;;;45.17;27.13;;;;;;;7.42;100.00;99271.33;3332839;85;98605;-89
2022/12/22 18:30:19;;;;;;;38.83;23.93;;;;;;;7.42;100.00;99272.70;3344344;85;26702;-87
2022/12/22 18:35:24;;;;;;;42.17;24.90;;;;;;;7.43;100.00;99277.80;3393836;85;98796;-87
2022/12/22 18:40:33;;;;;;;35.10;22.75;;;;;;;7.45;100.00;99286.39;3456445;84;31416;-87
2022/12/22 18:45:39;;;;;;;35.87;23.07;;;;;;;7.47;100.00;99290.13;3305050;85;98815;-88
2022/12/22 18:50:40;;;;;;;31.57;20.80;;;;;;;7.47;100.00;99296.97;3330251;86;26681;-88
2022/12/22 18:55:44;;;;;;;36.57;21.23;;;;;;;7.48;100.00;99300.67;3404719;85;98643;-88
2022/12/22 19:00:46;;;;;;;30.60;17.52;;;;;;;7.48;100.00;99302.04;3443206;84;30809;-88
2022/12/22 19:05:48;;;;;;;28.73;17.77;;;;;;;7.50;100.00;99306.56;3509218;82;99319;-88
2022/12/22 19:10:54;;;;;;;35.83;19.93;;;;;;;7.52;100.00;99311.66;3511361;82;27005;-88
2022/12/22 19:15:57;;;;;;;32.20;19.42;;;;;;;7.53;100.00;99309.13;3517273;81;98151;-87
2022/12/22 19:20:58;;;;;;;34.90;20.15;;;;;;;7.53;100.00;99315.36;3486122;82;98658;-86
2022/12/22 19:26:03;;;;;;;39.37;21.37;;;;;;;7.53;100.00;99310.48;3515009;82;26174;-88
2022/12/22 19:31:06;;;;;;;31.30;19.03;;;;;;;7.52;100.00;99322.61;3510448;81;98715;-88
2022/12/22 19:36:27;;;;;;;32.55;17.12;;;;;;;7.53;100.00;99335.12;3495911;83;30839;-89
2022/12/22 19:41:47;;;;;;;32.93;17.15;;;;;;;7.53;100.00;99341.97;3485630;82;98907;-88
2022/12/22 19:46:48;;;;;;;33.42;16.77;;;;;;;7.53;100.00;99352.92;3476820;82;29849;-88
2022/12/22 19:51:49;;;;;;;31.17;16.47;;;;;;;7.53;100.00;99346.08;3487368;83;98994;-88
2022/12/22 19:56:54;;;;;;;26.70;14.77;;;;;;;7.50;100.00;99338.05;3496882;83;34826;-88
2022/12/22 20:01:55;;;;;;;27.43;15.30;;;;;;;7.49;100.00;99344.69;3489682;82;98779;-87
2022/12/22 20:06:56;;;;;;;27.27;14.47;;;;;;;7.50;100.00;99342.16;3493893;83;35324;-87
2022/12/22 20:11:56;;;;;;;25.23;15.13;;;;;;;7.48;100.00;99342.33;3489647;82;98944;-87
2022/12/22 20:16:57;;;;;;;26.40;15.07;;;;;;;7.52;100.00;99351.36;3495586;83;35436;-87
2022/12/22 20:21:58;;;;;;;26.13;15.20;;;;;;;7.49;100.00;99365.22;3485233;83;98506;-88
2022/12/22 20:26:59;;;;;;;25.07;15.13;;;;;;;7.48;100.00;99370.47;3491753;83;34844;-87
2022/12/22 20:32:00;;;;;;;25.37;14.67;;;;;;;7.47;100.00;99381.22;3467287;83;98755;-87
2022/12/22 20:37:01;;;;;;;26.40;13.80;;;;;;;7.48;100.00;99380.66;3459216;84;34826;-88
2022/12/22 20:42:02;;;;;;;22.27;12.70;;;;;;;7.46;100.00;99385.70;3452291;84;98609;-88
2022/12/22 20:47:02;;;;;;;22.17;12.90;;;;;;;7.44;100.00;99383.94;3458116;84;25844;-87
2022/12/22 20:52:03;;;;;;;22.03;12.87;;;;;;;7.42;100.00;99390.39;3451959;83;98868;-88
2022/12/22 20:57:04;;;;;;;22.90;13.20;;;;;;;7.41;100.00;99399.17;3461853;84;33073;-88
2022/12/22 21:02:22;;;;;;;24.17;13.50;;;;;;;7.40;100.00;99409.92;3452037;83;98858;-88
2022/12/22 21:07:23;;;;;;;24.32;13.48;;;;;;;7.38;100.00;99410.10;3459192;84;35059;-88
2022/12/22 21:12:24;;;;;;;25.20;13.47;;;;;;;7.36;100.00;99418.69;3452716;84;98784;-89
2022/12/22 21:17:25;;;;;;;22.37;12.97;;;;;;;7.36;100.00;99415.95;3459022;84;33092;-88
2022/12/22 21:22:25;;;;;;;20.83;12.67;;;;;;;7.34;100.00;99422.40;3452686;82;98710;-88
2022/12/22 21:27:26;;;;;;;21.87;12.30;;;;;;;7.32;100.00;99440.36;3459996;84;32443;-88
2022/12/22 21:32:27;;;;;;;21.73;12.78;;;;;;;7.32;100.00;99437.63;3452733;84;98853;-89
2022/12/22 21:37:28;;;;;;;20.03;12.90;;;;;;;7.30;100.00;99444.84;3453978;84;32452;-86
2022/12/22 21:42:28;;;;;;;21.97;12.65;;;;;;;7.27;100.00;99440.70;3451313;83;98771;-88
2022/12/22 21:47:29;;;;;;;23.73;13.77;;;;;;;7.23;100.00;99453.56;3457343;84;27380;-88
2022/12/22 21:52:30;;;;;;;23.70;14.23;;;;;;;7.19;100.00;99460.37;3452639;84;98954;-88
2022/12/22 21:57:30;;;;;;;21.75;13.78;;;;;;;7.15;100.00;99460.16;3456490;84;33274;-86
2022/12/22 22:02:31;;;;;;;21.47;12.87;;;;;;;7.11;100.00;99453.86;3450577;84;98681;-86
2022/12/22 22:07:32;;;;;;;20.23;12.17;;;;;;;7.05;100.00;99455.36;3454523;84;27024;-86
2022/12/22 22:12:35;;;;;;;20.50;13.00;;;;;;;6.95;100.00;99458.21;3456554;83;98735;-87
2022/12/22 22:17:36;;;;;;;23.83;13.80;;;;;;;6.84;100.00;99462.78;3461006;84;26395;-86
2022/12/22 22:22:37;;;;;;;21.13;11.83;;;;;;;6.71;100.00;99468.89;3449848;84;98518;-86
2022/12/22 22:27:39;;;;;;;21.13;12.37;;;;;;;6.65;100.00;99463.55;3457579;84;26470;-87
2022/12/22 22:32:41;;;;;;;19.83;12.27;;;;;;;6.54;100.00;99469.48;3448033;84;99040;-87
2022/12/22 22:37:43;;;;;;;22.17;13.63;;;;;;;6.48;100.00;99477.21;3458795;84;26299;-86
2022/12/22 22:42:44;;;;;;;25.70;14.10;;;;;;;6.44;100.00;99478.34;3455369;83;98664;-86
2022/12/22 22:47:44;;;;;;;22.53;13.40;;;;;;;6.41;100.00;99489.44;3455546;84;26385;-86
2022/12/22 22:52:46;;;;;;;22.97;12.97;;;;;;;6.17;100.00;99477.59;3451378;84;98776;-86
2022/12/22 22:57:47;;;;;;;23.50;13.17;;;;;;;6.17;100.00;99477.59;3452531;84;25947;-86
2022/12/22 23:02:47;;;;;;;27.10;15.03;;;;;;;6.22;100.00;99497.76;3455256;82;98522;-86
2022/12/22 23:07:48;;;;;;;26.07;13.97;;;;;;;6.19;100.00;99493.61;3460158;84;25797;-86
2022/12/22 23:12:49;;;;;;;23.03;13.33;;;;;;;6.13;100.00;99486.34;3452505;84;99018;-85
2022/12/22 23:17:50;;;;;;;25.68;14.13;;;;;;;6.10;100.00;99495.26;3462782;84;25854;-87
2022/12/22 23:22:51;;;;;;;22.90;13.00;;;;;;;6.04;100.00;99481.72;3457543;83;98885;-86
2022/12/22 23:27:52;;;;;;;20.47;12.03;;;;;;;5.97;100.00;99478.09;3441996;84;33773;-87
2022/12/22 23:32:53;;;;;;;21.43;13.07;;;;;;;5.91;100.00;99468.09;3456472;82;98898;-86
2022/12/22 23:37:53;;;;;;;22.47;12.37;;;;;;;5.83;100.00;99464.27;3464193;84;33242;-87
2022/12/22 23:42:54;;;;;;;22.67;11.93;;;;;;;5.75;100.00;99463.34;3455838;84;98994;-87
2022/12/22 23:47:55;;;;;;;19.63;11.53;;;;;;;5.69;100.00;99468.91;3460672;84;33016;-86
2022/12/22 23:52:56;;;;;;;19.97;10.67;;;;;;;5.63;100.00;99479.12;3454325;82;98926;-86
2022/12/22 23:57:57;;;;;;;22.67;11.23;;;;;;;5.59;100.00;99487.83;3459847;84;31445;-86
